createdAt,value
2018-09-09T00:03:32.255Z,101162.33
2018-09-09T00:08:35.938Z,101160.61
2018-09-09T00:13:39.901Z,101156.80
2018-09-09T00:18:43.596Z,101148.19
2018-09-09T00:23:47.411Z,101151.69
2018-09-09T00:28:51.148Z,101140.09
2018-09-09T00:33:54.805Z,101142.05
2018-09-09T00:38:58.463Z,101145.39
2018-09-09T00:44:02.319Z,101144.86
2018-09-09T00:49:11.581Z,101143.77
2018-09-09T00:54:15.602Z,101156.27
2018-09-09T00:59:19.317Z,101151.69
2018-09-09T01:04:23.053Z,101156.73
2018-09-09T01:09:33.339Z,101160.27
2018-09-09T01:14:36.932Z,101153.87
2018-09-09T01:19:41.028Z,101146.12
2018-09-09T01:24:44.632Z,101144.19
2018-09-09T01:29:48.250Z,101139.80
2018-09-09T01:34:54.336Z,101148.45
2018-09-09T01:39:58.600Z,101150.70
2018-09-09T01:45:02.195Z,101145.13
2018-09-09T01:50:06.141Z,101147.20
2018-09-09T01:55:09.894Z,101146.14
2018-09-09T02:00:18.185Z,101142.05
2018-09-09T02:05:21.804Z,101145.50
2018-09-09T02:10:25.637Z,101140.74
2018-09-09T02:15:29.225Z,101145.79
2018-09-09T02:20:32.915Z,101146.53
2018-09-09T02:25:36.853Z,101152.55
2018-09-09T02:30:40.712Z,101147.34
2018-09-09T02:35:44.348Z,101139.64
2018-09-09T02:40:48.126Z,101147.80
2018-09-09T02:45:51.919Z,101145.05
2018-09-09T02:50:55.534Z,101137.99
2018-09-09T02:55:59.565Z,101136.20
2018-09-09T03:01:03.377Z,101151.00
2018-09-09T03:06:06.859Z,101146.64
2018-09-09T03:11:15.591Z,101156.72
2018-09-09T03:16:19.371Z,101148.52
2018-09-09T03:21:23.124Z,101143.75
2018-09-09T03:26:26.749Z,101155.41
2018-09-09T03:31:30.461Z,101143.48
2018-09-09T03:36:33.993Z,101160.30
2018-09-09T03:41:44.778Z,101151.00
2018-09-09T03:46:48.485Z,101146.89
2018-09-09T03:51:52.293Z,101145.91
2018-09-09T03:56:55.957Z,101147.59
2018-09-09T04:01:59.855Z,101142.25
2018-09-09T04:07:03.571Z,101130.53
2018-09-09T04:12:07.243Z,101115.14
2018-09-09T04:17:10.924Z,101108.34
2018-09-09T04:22:14.796Z,101131.43
2018-09-09T04:27:18.406Z,101146.77
2018-09-09T04:32:22.172Z,101150.51
2018-09-09T04:37:25.757Z,101150.34
2018-09-09T04:42:29.330Z,101143.56
2018-09-09T04:47:33.004Z,101162.34
2018-09-09T04:52:36.644Z,101164.25
2018-09-09T04:57:40.559Z,101157.36
2018-09-09T05:02:44.698Z,101161.38
2018-09-09T05:07:48.304Z,101162.23
2018-09-09T05:12:52.237Z,101163.94
2018-09-09T05:17:55.920Z,101174.22
2018-09-09T05:22:59.580Z,101173.25
2018-09-09T05:28:03.105Z,101175.38
2018-09-09T05:33:07.085Z,101179.09
2018-09-09T05:38:10.679Z,101185.23
2018-09-09T05:43:14.663Z,101191.64
2018-09-09T05:48:18.597Z,101197.16
2018-09-09T05:53:22.249Z,101203.05
2018-09-09T05:58:25.824Z,101212.16
2018-09-09T06:03:29.415Z,101209.62
2018-09-09T06:08:33.195Z,101205.20
2018-09-09T06:13:36.880Z,101202.80
2018-09-09T06:18:40.516Z,101197.05
2018-09-09T06:23:44.466Z,101195.73
2018-09-09T06:28:48.314Z,101202.19
2018-09-09T06:33:52.090Z,101199.45
2018-09-09T06:38:55.690Z,101209.59
2018-09-09T06:43:59.366Z,101217.67
2018-09-09T06:49:02.988Z,101215.20
2018-09-09T06:54:06.576Z,101215.88
2018-09-09T06:59:10.431Z,101221.23
2018-09-09T07:04:14.105Z,101226.11
2018-09-09T07:09:18.177Z,101231.40
2018-09-09T07:14:21.831Z,101239.11
2018-09-09T07:19:25.448Z,101246.63
2018-09-09T07:24:30.407Z,101242.27
2018-09-09T07:29:34.163Z,101235.10
2018-09-09T07:34:37.802Z,101241.73
2018-09-09T07:39:41.424Z,101238.82
2018-09-09T07:44:45.297Z,101243.97
2018-09-09T07:49:49.268Z,101250.89
2018-09-09T07:54:53.035Z,101246.33
2018-09-09T07:59:57.672Z,101255.45
2018-09-09T08:05:01.228Z,101255.16
2018-09-09T08:10:04.900Z,101246.66
2018-09-09T08:15:08.868Z,101245.28
2018-09-09T08:20:12.591Z,101253.05
2018-09-09T08:25:16.342Z,101251.78
2018-09-09T08:30:31.416Z,101268.78
2018-09-09T08:35:34.979Z,101266.34
2018-09-09T08:40:38.757Z,101261.77
2018-09-09T08:45:42.925Z,101265.99
2018-09-09T08:50:52.731Z,101258.05
2018-09-09T08:55:56.429Z,101248.19
2018-09-09T09:01:00.235Z,101234.15
2018-09-09T09:06:03.891Z,101237.13
2018-09-09T09:11:07.499Z,101236.33
2018-09-09T09:16:11.167Z,101236.03
2018-09-09T09:21:14.932Z,101240.55
2018-09-09T09:26:18.788Z,101240.19
2018-09-09T09:31:22.684Z,101245.65
2018-09-09T09:36:26.511Z,101255.08
2018-09-09T09:41:30.119Z,101249.07
2018-09-09T09:46:33.859Z,101250.28
2018-09-09T09:51:37.462Z,101248.30
2018-09-09T09:56:41.083Z,101248.84
2018-09-09T10:01:44.771Z,101252.04
2018-09-09T10:06:48.714Z,101240.41
2018-09-09T10:11:52.410Z,101230.56
2018-09-09T10:16:56.120Z,101231.61
2018-09-09T10:22:00.115Z,101239.04
2018-09-09T10:27:04.424Z,101240.19
2018-09-09T10:32:10.383Z,101240.83
2018-09-09T10:37:14.442Z,101239.08
2018-09-09T10:42:18.079Z,101235.47
2018-09-09T10:47:22.161Z,101234.11
2018-09-09T10:52:25.816Z,101239.53
2018-09-09T10:57:30.080Z,101242.97
2018-09-09T11:02:33.668Z,101241.91
2018-09-09T11:07:38.248Z,101239.38
2018-09-09T11:12:42.173Z,101237.65
2018-09-09T11:17:45.779Z,101236.34
2018-09-09T11:22:49.409Z,101231.39
2018-09-09T11:27:53.131Z,101236.02
2018-09-09T11:32:56.986Z,101231.41
2018-09-09T11:38:00.718Z,101224.59
2018-09-09T11:43:05.681Z,101234.85
2018-09-09T11:48:09.622Z,101231.50
2018-09-09T11:53:13.377Z,101235.33
2018-09-09T11:58:18.393Z,101233.89
2018-09-09T12:03:21.963Z,101232.17
2018-09-09T12:08:31.570Z,101242.69
2018-09-09T12:13:35.753Z,101237.46
2018-09-09T12:18:39.364Z,101237.11
2018-09-09T12:23:43.147Z,101236.55
2018-09-09T12:28:46.775Z,101224.63
2018-09-09T12:33:50.380Z,101212.19
2018-09-09T12:38:54.108Z,101223.35
2018-09-09T12:44:02.935Z,101210.39
2018-09-09T12:49:07.823Z,101209.31
2018-09-09T12:54:11.678Z,101213.32
2018-09-09T12:59:15.347Z,101207.91
2018-09-09T13:04:18.957Z,101197.58
2018-09-09T13:09:26.152Z,101199.79
2018-09-09T13:14:31.539Z,101197.75
2018-09-09T13:19:37.040Z,101206.02
2018-09-09T13:24:41.924Z,101197.56
2018-09-09T13:29:45.770Z,101197.70
2018-09-09T13:34:49.366Z,101188.59
2018-09-09T13:39:53.302Z,101194.72
2018-09-09T13:44:57.472Z,101199.03
2018-09-09T13:50:01.138Z,101207.16
2018-09-09T13:55:04.810Z,101215.06
2018-09-09T14:00:08.423Z,101209.45
2018-09-09T14:05:12.295Z,101204.43
2018-09-09T14:10:16.532Z,101209.62
2018-09-09T14:15:20.497Z,101205.45
2018-09-09T14:20:35.395Z,101196.97
2018-09-09T14:25:39.132Z,101198.83
2018-09-09T14:30:42.751Z,101202.74
2018-09-09T14:35:47.733Z,101201.33
2018-09-09T14:40:51.326Z,101203.36
2018-09-09T14:45:54.939Z,101199.54
2018-09-09T14:50:58.599Z,101193.55
2018-09-09T14:56:02.188Z,101184.16
2018-09-09T15:01:05.920Z,101192.52
2018-09-09T15:06:09.512Z,101195.60
2018-09-09T15:11:13.547Z,101190.48
2018-09-09T15:16:17.600Z,101187.02
2018-09-09T15:21:21.222Z,101176.73
2018-09-09T15:26:25.047Z,101189.86
2018-09-09T15:31:28.760Z,101189.42
2018-09-09T15:36:32.411Z,101185.96
2018-09-09T15:41:36.059Z,101172.31
2018-09-09T15:46:39.668Z,101176.53
2018-09-09T15:51:43.233Z,101172.46
2018-09-09T15:56:46.937Z,101171.30
2018-09-09T16:01:50.481Z,101177.45
2018-09-09T16:06:54.285Z,101180.71
2018-09-09T16:11:57.844Z,101184.45
2018-09-09T16:17:01.402Z,101184.34
2018-09-09T16:22:05.030Z,101177.11
2018-09-09T16:27:08.633Z,101173.00
2018-09-09T16:32:12.374Z,101168.23
2018-09-09T16:37:15.966Z,101158.79
2018-09-09T16:42:19.678Z,101169.55
2018-09-09T16:47:23.453Z,101167.98
2018-09-09T16:52:28.029Z,101169.61
2018-09-09T16:57:31.676Z,101162.63
2018-09-09T17:02:35.638Z,101173.01
2018-09-09T17:07:39.478Z,101164.61
2018-09-09T17:12:43.107Z,101172.00
2018-09-09T17:17:46.897Z,101170.45
2018-09-09T17:22:50.486Z,101169.92
2018-09-09T17:27:54.251Z,101181.95
2018-09-09T17:32:57.918Z,101180.94
2018-09-09T17:38:01.572Z,101180.97
2018-09-09T17:43:05.163Z,101192.03
2018-09-09T17:48:08.987Z,101189.16
2018-09-09T17:53:12.703Z,101192.88
2018-09-09T17:58:16.376Z,101208.66
2018-09-09T18:03:20.195Z,101206.41
2018-09-09T18:08:23.763Z,101211.86
2018-09-09T18:13:27.994Z,101213.16
2018-09-09T18:18:31.816Z,101206.57
2018-09-09T18:23:35.503Z,101206.41
2018-09-09T18:28:39.254Z,101209.05
2018-09-09T18:33:42.921Z,101211.44
2018-09-09T18:38:46.561Z,101208.09
2018-09-09T18:43:50.441Z,101207.58
2018-09-09T18:48:54.068Z,101210.70
2018-09-09T18:53:57.842Z,101208.85
2018-09-09T18:59:01.739Z,101216.64
2018-09-09T19:04:05.627Z,101217.84
2018-09-09T19:09:09.341Z,101217.80
2018-09-09T19:14:13.450Z,101219.86
2018-09-09T19:19:17.100Z,101218.41
2018-09-09T19:24:20.734Z,101212.80
2018-09-09T19:29:24.395Z,101215.83
2018-09-09T19:34:28.038Z,101211.62
2018-09-09T19:39:31.657Z,101212.23
2018-09-09T19:44:35.254Z,101221.33
2018-09-09T19:49:38.829Z,101220.75
2018-09-09T19:54:42.848Z,101218.70
2018-09-09T19:59:46.638Z,101224.90
2018-09-09T20:04:50.296Z,101226.20
2018-09-09T20:09:53.860Z,101231.54
2018-09-09T20:14:58.106Z,101226.83
2018-09-09T20:20:01.831Z,101221.45
2018-09-09T20:25:05.465Z,101220.57
2018-09-09T20:30:12.974Z,101220.94
2018-09-09T20:35:17.426Z,101217.95
2018-09-09T20:40:21.829Z,101221.34
2018-09-09T20:45:26.529Z,101221.91
2018-09-09T20:50:30.719Z,101224.03
2018-09-09T20:55:35.186Z,101232.43
2018-09-09T21:00:39.469Z,101220.67
2018-09-09T21:05:43.041Z,101224.91
2018-09-09T21:10:46.586Z,101226.83
2018-09-09T21:15:50.982Z,101219.36
2018-09-09T21:20:56.719Z,101214.19
2018-09-09T21:26:00.463Z,101222.80
2018-09-09T21:31:04.310Z,101218.72
2018-09-09T21:36:08.103Z,101212.48
2018-09-09T21:41:11.921Z,101206.58
2018-09-09T21:46:15.797Z,101202.50
2018-09-09T21:51:19.422Z,101203.22
2018-09-09T21:56:23.104Z,101205.16
2018-09-09T22:01:32.247Z,101204.48
2018-09-09T22:06:35.882Z,101199.58
2018-09-09T22:11:39.730Z,101191.76
2018-09-09T22:16:43.445Z,101193.30
2018-09-09T22:21:48.834Z,101196.73
2018-09-09T22:26:52.592Z,101194.06
2018-09-09T22:31:56.310Z,101182.21
2018-09-09T22:37:08.836Z,101183.02
2018-09-09T22:42:12.654Z,101183.25
2018-09-09T22:47:16.231Z,101181.22
2018-09-09T22:52:20.022Z,101182.80
2018-09-09T22:57:23.789Z,101171.75
2018-09-09T23:02:27.623Z,101176.59
2018-09-09T23:07:31.246Z,101182.35
2018-09-09T23:12:34.927Z,101179.89
2018-09-09T23:17:38.464Z,101168.84
2018-09-09T23:22:42.041Z,101173.08
2018-09-09T23:27:45.803Z,101167.28
2018-09-09T23:32:49.613Z,101171.53
2018-09-09T23:37:53.192Z,101168.86
2018-09-09T23:42:56.845Z,101154.63
2018-09-09T23:48:00.446Z,101153.77
2018-09-09T23:53:04.039Z,101145.44
2018-09-09T23:58:07.785Z,101151.20
